createdAt,value
2023-10-04T00:00:10.757Z,76.21
2023-10-04T00:02:56.510Z,76.65
2023-10-04T00:05:42.194Z,76.13
2023-10-04T00:08:27.910Z,76.03
2023-10-04T00:11:16.415Z,75.89
2023-10-04T00:14:01.905Z,75.74
2023-10-04T00:16:47.465Z,75.71
2023-10-04T00:19:33.078Z,75.90
2023-10-04T00:22:18.818Z,75.60
2023-10-04T00:25:05.196Z,76.08
2023-10-04T00:27:52.548Z,75.89
2023-10-04T00:30:37.941Z,76.00
2023-10-04T00:33:23.569Z,76.55
2023-10-04T00:36:09.463Z,76.77
2023-10-04T00:38:55.053Z,76.65
2023-10-04T00:41:41.559Z,76.42
2023-10-04T00:44:26.937Z,76.40
2023-10-04T00:47:12.546Z,76.15
2023-10-04T00:49:57.917Z,76.02
2023-10-04T00:52:52.396Z,75.63
2023-10-04T00:55:39.202Z,75.82
2023-10-04T00:58:24.884Z,75.78
2023-10-04T01:01:10.173Z,77.48
2023-10-04T01:03:55.647Z,76.86
2023-10-04T01:06:41.392Z,77.11
2023-10-04T01:09:28.247Z,77.14
2023-10-04T01:12:13.560Z,76.94
2023-10-04T01:14:59.057Z,77.03
2023-10-04T01:17:44.426Z,76.89
2023-10-04T01:20:30.183Z,75.95
2023-10-04T01:23:16.082Z,76.46
2023-10-04T01:26:02.100Z,76.82
2023-10-04T01:28:47.401Z,77.78
2023-10-04T01:31:32.919Z,77.86
2023-10-04T01:34:18.474Z,77.97
2023-10-04T01:37:03.944Z,77.72
2023-10-04T01:39:49.121Z,77.80
2023-10-04T01:42:34.850Z,77.88
2023-10-04T01:45:20.429Z,77.87
2023-10-04T01:48:06.781Z,77.38
2023-10-04T01:50:51.905Z,76.98
2023-10-04T01:53:37.409Z,76.69
2023-10-04T01:56:23.053Z,76.01
2023-10-04T01:59:08.856Z,75.83
2023-10-04T02:01:54.148Z,75.18
2023-10-04T02:04:39.680Z,76.46
2023-10-04T02:07:24.817Z,77.07
2023-10-04T02:10:10.524Z,76.33
2023-10-04T02:12:55.840Z,76.32
2023-10-04T02:15:41.294Z,75.88
2023-10-04T02:18:26.964Z,75.40
2023-10-04T02:21:12.938Z,75.56
2023-10-04T02:23:58.028Z,75.95
2023-10-04T02:26:43.300Z,77.18
2023-10-04T02:29:28.742Z,76.77
2023-10-04T02:32:14.364Z,78.62
2023-10-04T02:35:00.801Z,77.28
2023-10-04T02:37:46.628Z,78.04
2023-10-04T02:40:32.104Z,77.68
2023-10-04T02:43:18.661Z,77.61
2023-10-04T02:46:04.358Z,76.80
2023-10-04T02:48:49.738Z,76.61
2023-10-04T02:51:35.177Z,76.62
2023-10-04T02:54:21.125Z,76.10
2023-10-04T02:57:06.906Z,76.26
2023-10-04T02:59:52.243Z,75.65
2023-10-04T03:02:38.337Z,75.56
2023-10-04T03:05:24.659Z,76.08
2023-10-04T03:08:12.144Z,75.91
2023-10-04T03:10:57.478Z,75.24
2023-10-04T03:13:47.199Z,75.32
2023-10-04T03:16:33.450Z,76.18
2023-10-04T03:19:19.002Z,76.04
2023-10-04T03:22:05.135Z,75.53
2023-10-04T03:24:51.089Z,75.37
2023-10-04T03:27:36.575Z,75.23
2023-10-04T03:30:22.635Z,75.89
2023-10-04T03:33:11.264Z,75.91
2023-10-04T03:35:58.617Z,76.60
2023-10-04T03:38:44.932Z,76.12
2023-10-04T03:41:30.893Z,76.07
2023-10-04T03:44:21.303Z,76.23
2023-10-04T03:47:07.178Z,76.46
2023-10-04T03:49:52.805Z,76.96
2023-10-04T03:52:38.076Z,76.97
2023-10-04T03:55:23.846Z,77.13
2023-10-04T03:58:09.755Z,76.53
2023-10-04T04:00:55.521Z,76.90
2023-10-04T04:03:40.889Z,77.38
2023-10-04T04:06:26.395Z,77.68
2023-10-04T04:09:12.053Z,77.99
2023-10-04T04:11:57.277Z,77.73
2023-10-04T04:14:42.821Z,77.98
2023-10-04T04:17:28.802Z,77.34
2023-10-04T04:20:14.588Z,77.61
2023-10-04T04:23:00.775Z,78.04
2023-10-04T04:25:46.714Z,77.55
2023-10-04T04:28:33.502Z,77.79
2023-10-04T04:31:18.780Z,79.43
2023-10-04T04:34:05.653Z,80.17
2023-10-04T04:36:50.872Z,80.10
2023-10-04T04:39:36.446Z,80.24
2023-10-04T04:42:22.075Z,80.60
2023-10-04T04:45:08.332Z,81.45
2023-10-04T04:47:55.609Z,82.04
2023-10-04T04:50:42.081Z,82.96
2023-10-04T04:53:27.639Z,82.18
2023-10-04T04:56:14.739Z,82.98
2023-10-04T04:59:01.273Z,83.31
2023-10-04T05:01:47.927Z,83.41
2023-10-04T05:04:33.279Z,82.81
2023-10-04T05:07:19.311Z,82.09
2023-10-04T05:10:05.018Z,81.76
2023-10-04T05:12:50.624Z,81.88
2023-10-04T05:15:36.506Z,81.23
2023-10-04T05:18:22.832Z,81.02
2023-10-04T05:21:08.412Z,81.86
2023-10-04T05:23:53.905Z,82.25
2023-10-04T05:26:39.521Z,82.41
2023-10-04T05:29:24.818Z,81.50
2023-10-04T05:32:10.599Z,81.85
2023-10-04T05:34:56.045Z,82.79
2023-10-04T05:37:45.353Z,82.71
2023-10-04T05:40:35.745Z,82.44
2023-10-04T05:43:21.403Z,82.44
2023-10-04T05:46:06.957Z,82.45
2023-10-04T05:48:52.194Z,82.11
2023-10-04T05:51:37.708Z,82.51
2023-10-04T05:54:23.242Z,81.47
2023-10-04T05:57:08.978Z,81.97
2023-10-04T05:59:54.238Z,81.44
2023-10-04T06:02:39.327Z,81.52
2023-10-04T06:05:26.181Z,81.94
2023-10-04T06:08:15.782Z,82.52
2023-10-04T06:11:01.441Z,82.20
2023-10-04T06:13:46.422Z,81.50
2023-10-04T06:16:31.917Z,82.47
2023-10-04T06:19:29.409Z,82.61
2023-10-04T06:22:16.002Z,83.09
2023-10-04T06:25:01.483Z,84.45
2023-10-04T06:27:49.402Z,84.88
2023-10-04T06:30:35.324Z,84.19
2023-10-04T06:33:20.846Z,83.71
2023-10-04T06:36:06.410Z,84.07
2023-10-04T06:38:51.831Z,83.59
2023-10-04T06:41:37.256Z,83.65
2023-10-04T06:44:23.116Z,83.38
2023-10-04T06:47:08.636Z,82.74
2023-10-04T06:49:53.946Z,83.14
2023-10-04T06:52:39.597Z,84.46
2023-10-04T06:55:25.080Z,84.07
2023-10-04T06:58:10.810Z,82.96
2023-10-04T07:00:56.345Z,83.38
2023-10-04T07:03:41.648Z,83.03
2023-10-04T07:06:27.091Z,82.05
2023-10-04T07:09:13.283Z,81.90
2023-10-04T07:11:58.534Z,81.43
2023-10-04T07:14:44.098Z,81.24
2023-10-04T07:17:32.436Z,80.59
2023-10-04T07:20:19.428Z,81.28
2023-10-04T07:23:06.128Z,82.40
2023-10-04T07:25:51.627Z,83.82
2023-10-04T07:28:37.184Z,83.38
2023-10-04T07:31:22.738Z,83.33
2023-10-04T07:34:08.192Z,83.32
2023-10-04T07:36:54.226Z,82.88
2023-10-04T07:39:39.758Z,83.30
2023-10-04T07:42:25.137Z,83.65
2023-10-04T07:45:11.105Z,83.86
2023-10-04T07:47:57.075Z,83.63
2023-10-04T07:50:42.668Z,81.50
2023-10-04T07:53:28.343Z,80.90
2023-10-04T07:56:13.606Z,80.42
2023-10-04T07:58:59.344Z,80.45
2023-10-04T08:01:45.386Z,79.43
2023-10-04T08:04:31.211Z,80.29
2023-10-04T08:07:16.470Z,80.70
2023-10-04T08:10:01.950Z,80.59
2023-10-04T08:12:47.346Z,79.86
2023-10-04T08:15:34.629Z,80.20
2023-10-04T08:18:19.938Z,79.69
2023-10-04T08:21:05.584Z,79.92
2023-10-04T08:23:51.186Z,79.80
2023-10-04T08:26:37.012Z,80.42
2023-10-04T08:29:22.229Z,80.46
2023-10-04T08:32:07.753Z,80.82
2023-10-04T08:34:53.286Z,80.00
2023-10-04T08:37:39.036Z,79.54
2023-10-04T08:40:27.169Z,78.68
2023-10-04T08:43:13.935Z,79.02
2023-10-04T08:45:59.598Z,78.30
2023-10-04T08:48:45.645Z,78.11
2023-10-04T08:52:00.390Z,77.71
2023-10-04T08:54:53.507Z,78.19
2023-10-04T08:57:40.284Z,76.89
2023-10-04T09:00:31.195Z,77.44
2023-10-04T09:03:20.751Z,77.57
2023-10-04T09:06:06.735Z,77.10
2023-10-04T09:08:52.240Z,76.16
2023-10-04T09:11:37.961Z,75.88
2023-10-04T09:14:23.259Z,75.56
2023-10-04T09:17:09.781Z,75.50
2023-10-04T09:19:56.504Z,75.54
2023-10-04T09:22:42.198Z,74.22
2023-10-04T09:25:37.841Z,74.45
2023-10-04T09:28:40.740Z,72.52
2023-10-04T09:31:26.087Z,74.16
2023-10-04T09:34:14.887Z,72.66
2023-10-04T09:37:00.850Z,74.15
2023-10-04T09:39:46.777Z,71.38
2023-10-04T09:42:32.470Z,72.31
2023-10-04T09:45:19.063Z,69.21
2023-10-04T09:48:04.639Z,69.61
2023-10-04T09:50:50.294Z,67.73
2023-10-04T09:53:36.178Z,67.98
2023-10-04T09:56:21.985Z,69.54
2023-10-04T09:59:07.658Z,68.12
2023-10-04T10:01:54.476Z,65.37
2023-10-04T10:04:44.221Z,64.43
2023-10-04T10:07:34.642Z,64.22
2023-10-04T10:10:22.412Z,64.06
2023-10-04T10:13:09.427Z,66.29
2023-10-04T10:15:54.999Z,63.89
2023-10-04T10:18:41.481Z,63.10
2023-10-04T10:22:05.442Z,64.07
2023-10-04T10:25:08.434Z,64.65
2023-10-04T10:28:02.532Z,62.12
2023-10-04T10:30:48.448Z,63.46
2023-10-04T10:33:33.626Z,62.90
2023-10-04T10:36:25.941Z,63.66
2023-10-04T10:39:22.004Z,60.21
2023-10-04T10:42:07.505Z,61.40
2023-10-04T10:45:25.511Z,60.93
2023-10-04T10:48:14.573Z,61.03
2023-10-04T10:51:01.055Z,64.74
2023-10-04T10:53:46.423Z,61.89
2023-10-04T10:56:31.700Z,63.88
2023-10-04T10:59:17.325Z,62.47
2023-10-04T11:02:06.028Z,60.47
2023-10-04T11:04:52.741Z,61.45
2023-10-04T11:07:38.077Z,60.35
2023-10-04T11:10:26.332Z,59.41
2023-10-04T11:13:16.124Z,60.03
2023-10-04T11:16:01.694Z,61.44
2023-10-04T11:18:47.166Z,61.01
2023-10-04T11:21:33.802Z,59.26
2023-10-04T11:24:21.061Z,58.95
2023-10-04T11:27:09.069Z,60.17
2023-10-04T11:29:55.098Z,61.57
2023-10-04T11:32:41.294Z,60.72
2023-10-04T11:35:36.327Z,61.40
2023-10-04T11:38:22.149Z,61.09
2023-10-04T11:41:07.696Z,61.69
2023-10-04T11:43:53.250Z,61.38
2023-10-04T11:46:56.528Z,60.83
2023-10-04T11:49:56.472Z,60.54
2023-10-04T11:52:41.975Z,60.21
2023-10-04T11:55:28.119Z,60.01
2023-10-04T11:58:13.329Z,60.25
2023-10-04T12:01:08.407Z,61.39
2023-10-04T12:03:54.154Z,60.76
2023-10-04T12:06:39.562Z,60.16
2023-10-04T12:09:24.781Z,60.30
2023-10-04T12:12:10.383Z,59.75
2023-10-04T12:14:55.917Z,61.40
2023-10-04T12:17:41.309Z,58.81
2023-10-04T12:20:27.027Z,59.46
2023-10-04T12:23:13.157Z,58.51
2023-10-04T12:25:58.674Z,58.57
2023-10-04T12:28:44.335Z,58.18
2023-10-04T12:31:31.220Z,59.10
2023-10-04T12:34:18.092Z,58.92
2023-10-04T12:37:03.706Z,58.05
2023-10-04T12:39:49.109Z,58.78
2023-10-04T12:42:34.255Z,59.03
2023-10-04T12:45:22.767Z,60.16
2023-10-04T12:48:08.335Z,58.61
2023-10-04T12:50:54.511Z,59.08
2023-10-04T12:53:40.359Z,60.01
2023-10-04T12:56:26.109Z,58.69
2023-10-04T12:59:11.557Z,59.11
2023-10-04T13:01:56.733Z,58.48
2023-10-04T13:04:42.013Z,58.04
2023-10-04T13:07:27.431Z,58.91
2023-10-04T13:10:12.788Z,58.84
2023-10-04T13:12:58.546Z,59.52
2023-10-04T13:15:43.951Z,60.28
2023-10-04T13:18:29.673Z,60.32
2023-10-04T13:21:16.125Z,58.13
2023-10-04T13:24:02.117Z,59.65
2023-10-04T13:26:47.305Z,59.49
2023-10-04T13:29:33.056Z,58.79
2023-10-04T13:32:18.503Z,57.68
2023-10-04T13:35:04.456Z,57.33
2023-10-04T13:37:49.927Z,58.76
2023-10-04T13:40:35.572Z,58.87
2023-10-04T13:43:21.086Z,57.66
2023-10-04T13:46:06.524Z,56.74
2023-10-04T13:48:51.647Z,56.74
2023-10-04T13:51:37.259Z,56.74
2023-10-04T13:54:23.013Z,56.87
2023-10-04T13:57:08.540Z,58.12
2023-10-04T13:59:53.830Z,57.99
2023-10-04T14:02:39.389Z,58.36
2023-10-04T14:05:24.937Z,57.26
2023-10-04T14:08:10.622Z,57.99
2023-10-04T14:10:56.476Z,56.96
2023-10-04T14:13:41.933Z,57.90
2023-10-04T14:16:27.283Z,57.63
2023-10-04T14:19:13.807Z,57.60
2023-10-04T14:22:00.491Z,58.46
2023-10-04T14:24:45.826Z,59.50
2023-10-04T14:27:31.331Z,59.47
2023-10-04T14:30:17.161Z,60.53
2023-10-04T14:33:02.855Z,60.79
2023-10-04T14:35:48.400Z,60.48
2023-10-04T14:38:33.700Z,61.98
2023-10-04T14:41:19.151Z,60.36
2023-10-04T14:44:04.911Z,59.51
2023-10-04T14:46:50.781Z,61.56
2023-10-04T15:53:16.633Z,63.19
2023-10-04T15:56:02.229Z,64.42
2023-10-04T15:58:47.504Z,62.98
2023-10-04T16:01:33.225Z,63.44
2023-10-04T16:04:18.528Z,64.95
2023-10-04T16:07:04.048Z,64.74
2023-10-04T16:09:49.279Z,66.45
2023-10-04T16:12:35.379Z,66.17
2023-10-04T16:15:21.402Z,64.97
2023-10-04T16:18:06.771Z,65.63
2023-10-04T16:20:52.682Z,64.88
2023-10-04T16:23:37.909Z,64.62
2023-10-04T16:26:23.432Z,64.74
2023-10-04T16:29:08.669Z,66.50
2023-10-04T16:31:54.135Z,65.86
2023-10-04T16:34:39.354Z,65.84
2023-10-04T16:37:24.799Z,64.92
2023-10-04T16:40:11.542Z,66.82
2023-10-04T16:42:57.155Z,66.82
2023-10-04T16:45:42.615Z,66.00
2023-10-04T16:48:28.043Z,65.76
2023-10-04T16:51:14.342Z,65.83
2023-10-04T16:53:59.816Z,65.40
2023-10-04T16:56:45.613Z,65.46
2023-10-04T16:59:31.586Z,65.93
2023-10-04T17:02:17.957Z,66.65
2023-10-04T17:05:03.484Z,67.50
2023-10-04T17:07:48.746Z,67.47
2023-10-04T17:10:34.068Z,69.82
2023-10-04T17:13:19.531Z,70.21
2023-10-04T17:16:05.127Z,70.69
2023-10-04T17:18:51.624Z,71.22
2023-10-04T17:21:37.109Z,69.96
2023-10-04T17:24:22.623Z,70.94
2023-10-04T17:27:07.831Z,70.94
2023-10-04T17:29:53.093Z,71.37
2023-10-04T17:32:38.773Z,70.87
2023-10-04T17:35:24.060Z,70.68
2023-10-04T17:38:09.373Z,70.67
2023-10-04T17:40:54.686Z,70.08
2023-10-04T17:43:39.757Z,69.88
2023-10-04T17:46:26.933Z,70.82
2023-10-04T17:49:12.265Z,71.43
2023-10-04T17:51:57.853Z,70.79
2023-10-04T17:54:43.792Z,70.74
2023-10-04T17:57:29.426Z,71.64
2023-10-04T18:00:15.261Z,71.78
2023-10-04T18:03:00.850Z,72.10
2023-10-04T18:05:46.474Z,72.40
2023-10-04T18:08:31.928Z,71.82
2023-10-04T18:11:17.244Z,72.43
2023-10-04T18:14:04.306Z,72.08
2023-10-04T18:16:50.779Z,72.09
2023-10-04T18:19:36.335Z,72.59
2023-10-04T18:22:21.953Z,72.44
2023-10-04T18:25:11.346Z,72.07
2023-10-04T18:27:57.312Z,71.66
2023-10-04T18:30:42.998Z,71.92
2023-10-04T18:33:29.055Z,72.71
2023-10-04T18:36:19.592Z,72.56
2023-10-04T18:39:05.854Z,72.46
2023-10-04T18:41:51.689Z,72.86
2023-10-04T18:44:38.038Z,73.22
2023-10-04T18:47:24.670Z,73.14
2023-10-04T18:50:11.230Z,73.35
2023-10-04T18:52:57.005Z,73.83
2023-10-04T18:55:42.608Z,73.00
2023-10-04T18:58:28.130Z,72.83
2023-10-04T19:01:13.659Z,73.56
2023-10-04T19:03:59.151Z,73.43
2023-10-04T19:06:44.657Z,73.38
2023-10-04T19:09:29.968Z,72.86
2023-10-04T19:12:15.702Z,72.97
2023-10-04T19:15:01.171Z,72.88
2023-10-04T19:17:47.132Z,74.43
2023-10-04T19:20:32.335Z,74.32
2023-10-04T19:23:17.541Z,74.18
2023-10-04T19:26:04.130Z,74.83
2023-10-04T19:28:49.712Z,75.07
2023-10-04T19:31:34.959Z,74.65
2023-10-04T19:34:20.255Z,75.01
2023-10-04T19:37:05.926Z,74.60
2023-10-04T19:39:52.031Z,74.94
2023-10-04T19:42:37.983Z,74.30
2023-10-04T19:45:23.540Z,74.54
2023-10-04T19:48:09.018Z,74.76
2023-10-04T19:50:54.818Z,75.78
2023-10-04T19:53:40.386Z,75.71
2023-10-04T19:56:26.215Z,75.46
2023-10-04T19:59:11.566Z,75.68
2023-10-04T20:01:56.932Z,75.01
2023-10-04T20:04:42.382Z,74.78
2023-10-04T20:07:27.946Z,75.02
2023-10-04T20:10:14.156Z,75.70
2023-10-04T20:13:03.667Z,75.56
2023-10-04T20:15:49.532Z,75.31
2023-10-04T20:18:35.308Z,75.37
2023-10-04T20:21:20.678Z,75.20
2023-10-04T20:24:07.315Z,75.43
2023-10-04T20:26:52.545Z,75.28
2023-10-04T20:29:38.986Z,75.31
2023-10-04T20:32:24.550Z,74.76
2023-10-04T20:35:10.975Z,75.29
2023-10-04T20:37:56.345Z,75.75
2023-10-04T20:40:42.026Z,75.06
2023-10-04T20:43:27.252Z,75.28
2023-10-04T20:46:12.528Z,75.28
2023-10-04T20:48:57.938Z,75.86
2023-10-04T20:51:43.323Z,75.67
2023-10-04T20:54:28.910Z,75.96
2023-10-04T20:57:14.006Z,75.75
2023-10-04T20:59:59.575Z,75.89
2023-10-04T21:02:44.979Z,75.22
2023-10-04T21:05:30.687Z,75.15
2023-10-04T21:08:16.521Z,74.42
2023-10-04T21:11:07.045Z,75.84
2023-10-04T21:13:52.699Z,75.41
2023-10-04T21:16:38.131Z,75.57
2023-10-04T21:19:23.531Z,75.77
2023-10-04T21:22:08.987Z,75.92
2023-10-04T21:24:54.449Z,75.89
2023-10-04T21:27:40.068Z,76.22
2023-10-04T21:30:25.691Z,76.55
2023-10-04T21:33:11.193Z,77.11
2023-10-04T21:35:57.513Z,77.02
2023-10-04T21:38:43.016Z,76.66
2023-10-04T21:41:30.451Z,76.52
2023-10-04T21:44:15.645Z,76.39
2023-10-04T21:47:00.891Z,76.40
2023-10-04T21:49:46.317Z,74.78
2023-10-04T21:52:31.709Z,75.08
2023-10-04T21:55:17.039Z,75.85
2023-10-04T21:58:02.929Z,76.40
2023-10-04T22:00:48.167Z,76.13
2023-10-04T22:03:33.798Z,76.20
2023-10-04T22:06:19.105Z,75.99
2023-10-04T22:09:05.194Z,76.66
2023-10-04T22:11:51.909Z,76.33
2023-10-04T22:14:37.127Z,76.71
2023-10-04T22:17:22.615Z,75.86
2023-10-04T22:20:09.127Z,75.92
2023-10-04T22:22:54.278Z,76.43
2023-10-04T22:25:40.170Z,75.92
2023-10-04T22:31:15.332Z,76.64
2023-10-04T22:34:01.303Z,75.91
2023-10-04T22:36:46.631Z,76.29
2023-10-04T22:39:32.238Z,76.35
2023-10-04T22:42:17.876Z,76.69
2023-10-04T22:45:07.307Z,77.29
2023-10-04T22:47:52.893Z,78.10
2023-10-04T22:50:38.106Z,76.57
2023-10-04T22:53:23.344Z,76.93
2023-10-04T22:56:09.594Z,76.82
2023-10-04T22:58:55.514Z,76.93
2023-10-04T23:01:40.945Z,78.00
2023-10-04T23:04:26.938Z,77.25
2023-10-04T23:07:12.243Z,76.69
2023-10-04T23:09:57.647Z,76.83
2023-10-04T23:12:44.012Z,77.38
2023-10-04T23:15:30.021Z,78.13
2023-10-04T23:18:15.778Z,77.92
2023-10-04T23:21:01.431Z,77.87
2023-10-04T23:23:46.648Z,78.47
2023-10-04T23:26:31.991Z,77.96
2023-10-04T23:29:17.542Z,76.61
2023-10-04T23:32:03.223Z,77.09
2023-10-04T23:34:48.342Z,77.26
2023-10-04T23:37:33.919Z,77.58
2023-10-04T23:40:19.484Z,77.77
2023-10-04T23:43:05.083Z,77.42
2023-10-04T23:45:50.304Z,77.40
2023-10-04T23:48:35.753Z,77.52
2023-10-04T23:51:21.225Z,76.20
2023-10-04T23:54:09.171Z,76.00
2023-10-04T23:56:54.955Z,76.74
2023-10-04T23:59:40.445Z,76.48
